Time;durP1;ratioP1;P1;durP2;ratioP2;P2;SDS_P1;SDS_P2;PMS_P1;PMS_P2;Temp;Humidity;BMP_temperature;BMP_pressure;BME280_temperature;BME280_humidity;BME280_pressure;Samples;Min_cycle;Max_cycle;Signal;HPM_P1;HPM_P2
2023/12/06 00:02:40;;;;;;;244.10;88.60;;;;;;;-2.84;100.00;100351.45;212489;1293;139600;-80
2023/12/06 00:08:41;;;;;;;157.40;61.00;;;;;;;-2.87;100.00;100356.61;212177;1290;142101;-80
2023/12/06 00:20:43;;;;;;;478.80;146.80;;;;;;;-2.83;100.00;100360.42;212212;1291;141791;-80
2023/12/06 00:26:43;;;;;;;;;;;;;;;;;;;;;
2023/12/06 00:32:46;;;;;;;129.90;51.70;;;;;;;-2.81;100.00;100369.02;213037;1291;139803;-79
2023/12/06 00:38:47;;;;;;;118.10;47.60;;;;;;;-2.81;100.00;100375.32;217562;1290;141156;-80
2023/12/06 00:44:48;;;;;;;110.60;45.00;;;;;;;-2.79;100.00;100386.38;217901;1289;140071;-80
2023/12/06 00:56:51;;;;;;;186.80;62.50;;;;;;;-2.70;100.00;100393.27;213581;1291;141423;-84
2023/12/06 01:02:53;;;;;;;140.50;54.40;;;;;;;-2.65;100.00;100398.70;214503;1293;139581;-80
2023/12/06 01:14:55;;;;;;;125.60;48.70;;;;;;;-2.66;100.00;100389.81;214335;1290;139642;-80
2023/12/06 01:20:56;;;;;;;110.50;44.80;;;;;;;-2.61;100.00;100393.91;214369;1291;140554;-80
2023/12/06 01:26:58;;;;;;;91.20;40.20;;;;;;;-2.59;100.00;100406.80;213957;1293;141117;-80
2023/12/06 01:32:52;;;;;;;87.80;41.00;;;;;;;-2.56;100.00;100410.80;214654;1290;139472;-80
2023/12/06 01:38:53;;;;;;;105.60;41.90;;;;;;;-2.57;100.00;100405.64;213825;1291;142307;-81
2023/12/06 01:44:54;;;;;;;130.70;50.50;;;;;;;-2.58;100.00;100408.51;216201;1290;140051;-81
2023/12/06 01:50:55;;;;;;;243.30;87.60;;;;;;;-2.55;100.00;100403.23;213610;1290;141984;-80
2023/12/06 01:56:55;;;;;;;228.10;76.10;;;;;;;-2.54;100.00;100410.38;213395;1293;140926;-80
2023/12/06 02:02:57;;;;;;;275.00;82.60;;;;;;;-2.52;100.00;100404.48;212399;1290;139846;-80
2023/12/06 02:08:59;;;;;;;185.00;60.30;;;;;;;-2.52;100.00;100402.55;212420;1291;141327;-80
2023/12/06 02:15:00;;;;;;;157.40;56.50;;;;;;;-2.52;100.00;100402.97;212382;1291;139576;-81
2023/12/06 02:20:42;;;;;;;181.10;60.80;;;;;;;-2.54;100.00;100407.64;213218;1291;140824;-80
2023/12/06 02:26:43;;;;;;;145.10;54.40;;;;;;;-2.57;100.00;100404.66;214123;1292;141506;-80
2023/12/06 02:32:44;;;;;;;238.70;79.10;;;;;;;-2.58;100.00;100393.96;214893;1293;139950;-81
2023/12/06 02:38:46;;;;;;;172.20;59.50;;;;;;;-2.59;100.00;100396.30;211842;1295;141182;-80
2023/12/06 02:50:48;;;;;;;168.80;59.30;;;;;;;-2.55;100.00;100398.02;213730;1291;143087;-80
2023/12/06 02:56:50;;;;;;;124.80;46.10;;;;;;;-2.57;100.00;100395.56;213385;1290;141486;-80
2023/12/06 03:02:51;;;;;;;136.50;51.80;;;;;;;-2.59;100.00;100389.18;214688;1290;140712;-81
2023/12/06 03:08:51;;;;;;;169.40;59.40;;;;;;;-2.61;100.00;100388.13;213698;1290;141393;-80
2023/12/06 03:14:52;;;;;;;176.20;58.20;;;;;;;-2.57;100.00;100388.39;213833;1291;139755;-80
2023/12/06 03:20:54;;;;;;;108.10;44.90;;;;;;;-2.57;100.00;100385.33;214052;1293;141183;-80
2023/12/06 03:26:55;;;;;;;105.00;45.40;;;;;;;-2.61;100.00;100377.17;213202;1291;141055;-80
2023/12/06 03:32:56;;;;;;;106.70;45.80;;;;;;;-2.63;100.00;100367.80;212155;1296;139613;-80
2023/12/06 03:38:49;;;;;;;;;;;;;;;;;;;;;
2023/12/06 03:44:51;;;;;;;147.70;59.30;;;;;;;-2.66;100.00;100364.38;212417;1290;140746;-79
2023/12/06 03:50:52;;;;;;;103.60;42.50;;;;;;;-2.65;100.00;100359.04;212588;1291;142137;-81
2023/12/06 04:02:54;;;;;;;104.30;44.80;;;;;;;-2.70;100.00;100335.73;213951;1293;140696;-80
2023/12/06 04:14:57;;;;;;;92.60;39.70;;;;;;;-2.71;100.00;100355.61;212428;1293;139367;-80
2023/12/06 04:20:47;;;;;;;122.50;49.20;;;;;;;-2.71;100.00;100363.23;211885;1294;141468;-81
2023/12/06 04:26:48;;;;;;;128.40;48.60;;;;;;;-2.71;100.00;100354.28;211745;1293;142241;-81
2023/12/06 04:32:49;;;;;;;105.90;46.00;;;;;;;-2.71;100.00;100353.27;212379;1291;142270;-80
2023/12/06 04:50:53;;;;;;;100.50;43.10;;;;;;;-2.80;100.00;100366.30;215126;1288;140790;-80
2023/12/06 04:56:54;;;;;;;107.40;44.40;;;;;;;-2.86;100.00;100369.52;211782;1289;141501;-80
2023/12/06 05:02:54;;;;;;;94.60;39.90;;;;;;;-2.90;100.00;100370.98;214471;1293;140563;-80
2023/12/06 05:08:55;;;;;;;91.40;39.50;;;;;;;-2.92;100.00;100372.77;214043;1292;142312;-80
2023/12/06 05:20:58;;;;;;;95.00;42.60;;;;;;;-2.94;100.00;100388.53;214348;1291;140583;-80
2023/12/06 05:26:59;;;;;;;111.30;45.40;;;;;;;-2.92;100.00;100402.13;212256;1294;141215;-80
2023/12/06 05:33:00;;;;;;;101.80;43.70;;;;;;;-2.93;100.00;100403.06;214367;1291;140698;-80
2023/12/06 05:45:05;;;;;;;91.00;41.10;;;;;;;-3.13;100.00;100411.13;214040;1295;139783;-80
2023/12/06 05:51:04;;;;;;;100.20;43.30;;;;;;;-3.19;100.00;100422.10;215132;1291;141083;-81
2023/12/06 05:57:06;;;;;;;101.60;47.30;;;;;;;-3.27;100.00;100428.45;211818;1296;141279;-81
2023/12/06 06:02:51;;;;;;;111.00;48.60;;;;;;;-3.39;100.00;100436.65;215202;1291;140057;-79
2023/12/06 06:08:51;;;;;;;123.40;49.90;;;;;;;-3.46;100.00;100437.48;211896;1296;141553;-81
2023/12/06 06:14:36;;;;;;;106.30;48.10;;;;;;;-3.52;100.00;100438.98;212323;1299;139510;-80
2023/12/06 06:20:38;;;;;;;92.20;40.70;;;;;;;-3.59;100.00;100440.02;212193;1296;140661;-81
2023/12/06 06:26:39;;;;;;;101.10;45.00;;;;;;;-3.63;100.00;100441.67;217206;1291;141256;-81
2023/12/06 06:38:29;;;;;;;107.90;47.20;;;;;;;-3.73;100.00;100445.05;211706;1295;141010;-81
2023/12/06 06:44:31;;;;;;;108.60;49.80;;;;;;;-3.79;100.00;100450.64;217046;1293;140349;-81
2023/12/06 06:50:31;;;;;;;112.20;47.60;;;;;;;-3.81;100.00;100459.48;217269;1292;141472;-81
2023/12/06 06:56:31;;;;;;;;;;;;;;;;;;;;;
2023/12/06 07:02:33;;;;;;;208.70;74.80;;;;;;;-3.94;100.00;100460.17;217781;1291;140055;-80
2023/12/06 07:08:35;;;;;;;232.90;74.30;;;;;;;-4.01;100.00;100464.64;213234;1291;140864;-80
2023/12/06 07:20:39;;;;;;;335.50;98.70;;;;;;;-4.11;100.00;100464.34;217400;1295;142359;-80
2023/12/06 07:26:39;;;;;;;194.00;64.20;;;;;;;-4.16;100.00;100467.70;217271;1293;141970;-81
2023/12/06 07:32:29;;;;;;;178.70;65.00;;;;;;;-4.24;100.00;100467.65;217968;1292;139555;-80
2023/12/06 07:38:29;;;;;;;;;;;;;;;;;;;;;
2023/12/06 07:50:33;;;;;;;158.80;52.90;;;;;;;-4.13;100.00;100467.36;213877;1289;140923;-80
2023/12/06 07:56:35;;;;;;;208.60;69.40;;;;;;;-4.16;100.00;100466.52;212284;1291;141090;-78
2023/12/06 08:02:39;;;;;;;157.50;59.10;;;;;;;-4.15;100.00;100463.66;212589;1294;140226;-79
2023/12/06 08:08:37;;;;;;;157.20;56.80;;;;;;;-4.15;100.00;100473.66;216416;1288;140586;-80
2023/12/06 08:15:03;;;;;;;216.00;68.90;;;;;;;-4.10;100.00;100471.20;218036;1289;139803;-79
2023/12/06 08:20:39;;;;;;;190.20;62.10;;;;;;;-4.04;100.00;100471.38;216774;1289;141470;-80
2023/12/06 08:26:41;;;;;;;130.50;46.60;;;;;;;-3.98;100.00;100477.30;214204;1290;141411;-77
2023/12/06 08:38:44;;;;;;;179.60;63.70;;;;;;;-3.84;100.00;100487.58;212027;1292;141883;-78
2023/12/06 08:44:44;;;;;;;150.70;56.90;;;;;;;-3.78;100.00;100489.35;216549;1289;139689;-77
2023/12/06 08:50:47;;;;;;;135.50;48.40;;;;;;;-3.70;100.00;100497.40;212121;1294;140867;-77
2023/12/06 08:56:36;;;;;;;;;;;;;;;;;;;;;
2023/12/06 09:02:38;;;;;;;155.00;56.10;;;;;;;-3.61;100.00;100506.42;212473;1294;139684;-77
2023/12/06 09:14:38;;;;;;;;;;;;;;;;;;;;;
2023/12/06 09:20:42;;;;;;;135.50;50.20;;;;;;;-3.47;100.00;100504.95;211839;1289;141454;-77
2023/12/06 09:26:42;;;;;;;146.00;51.70;;;;;;;-3.40;100.00;100511.61;212145;1294;144155;-77
2023/12/06 09:32:56;;;;;;;;;;;;;;;;;;;;;
2023/12/06 09:38:46;;;;;;;100.60;39.10;;;;;;;-3.27;100.00;100505.34;212120;1294;141302;-77
2023/12/06 09:45:12;;;;;;;127.80;50.00;;;;;;;-3.21;100.00;100508.96;212403;1293;140404;-77
2023/12/06 09:50:41;;;;;;;130.40;48.10;;;;;;;-3.20;100.00;100508.19;207880;1289;141396;-77
2023/12/06 09:57:07;;;;;;;122.10;47.50;;;;;;;-3.07;100.00;100504.11;211748;1294;141266;-78
2023/12/06 10:08:53;;;;;;;144.50;53.20;;;;;;;-2.90;100.00;100499.52;211852;1295;140951;-76
2023/12/06 10:20:57;;;;;;;115.90;43.90;;;;;;;-2.77;100.00;100490.09;211779;1289;141036;-78
2023/12/06 10:26:58;;;;;;;145.20;54.30;;;;;;;-2.79;100.00;100486.08;212396;1290;141181;-77
2023/12/06 10:33:00;;;;;;;110.60;43.50;;;;;;;-2.79;100.00;100480.58;214033;1293;140407;-78
2023/12/06 10:39:01;;;;;;;138.30;54.20;;;;;;;-2.72;100.00;100476.20;212066;1293;141938;-77
2023/12/06 10:45:03;;;;;;;131.50;49.40;;;;;;;-2.64;100.00;100474.10;212437;1289;139850;-78
2023/12/06 10:51:04;;;;;;;137.40;52.30;;;;;;;-2.70;100.00;100468.30;214061;1289;141868;-78
2023/12/06 10:56:55;;;;;;;128.80;47.60;;;;;;;-2.71;100.00;100463.69;217521;1289;140930;-78
2023/12/06 11:08:58;;;;;;;;;;;;;;;;;;;;;
2023/12/06 11:15:15;;;;;;;129.30;49.60;;;;;;;-2.60;100.00;100462.89;213532;1291;139578;-78
2023/12/06 11:21:16;;;;;;;132.50;49.00;;;;;;;-2.64;100.00;100454.48;212341;1292;141828;-78
2023/12/06 11:27:17;;;;;;;117.50;43.40;;;;;;;-2.61;100.00;100455.20;211826;1291;141365;-79
2023/12/06 11:33:21;;;;;;;114.70;43.40;;;;;;;-2.64;100.00;100455.88;218164;1289;97420;-76
2023/12/06 11:39:32;;;;;;;133.20;49.70;;;;;;;-2.66;100.00;100453.76;217274;1290;141077;-77
2023/12/06 11:51:41;;;;;;;132.70;49.10;;;;;;;-2.54;100.00;100445.46;212278;1293;98485;-78
2023/12/06 11:57:30;;;;;;;122.70;46.80;;;;;;;-2.48;100.00;100446.73;211810;1291;140882;-78
2023/12/06 12:09:23;;;;;;;;;;;;;;;;;;;;;
2023/12/06 12:15:25;;;;;;;151.00;53.50;;;;;;;-2.41;100.00;100459.67;212283;1294;140085;-78
2023/12/06 12:21:27;;;;;;;121.40;48.00;;;;;;;-2.36;100.00;100456.85;212176;1291;367656;-79
2023/12/06 12:33:29;;;;;;;121.90;46.50;;;;;;;-2.26;100.00;100444.31;212534;1291;140107;-77
2023/12/06 12:39:30;;;;;;;176.00;71.10;;;;;;;-2.28;100.00;100435.88;212133;1295;141083;-78
2023/12/06 12:45:32;;;;;;;139.30;52.40;;;;;;;-2.22;100.00;100432.75;212401;1295;140241;-78
2023/12/06 12:57:36;;;;;;;152.90;57.30;;;;;;;-2.15;100.00;100436.20;211269;1299;140890;-78
2023/12/06 13:03:27;;;;;;;162.00;57.80;;;;;;;-2.13;100.00;100439.19;212425;1295;139676;-78
2023/12/06 13:09:26;;;;;;;118.60;44.30;;;;;;;-2.09;100.00;100440.80;211789;1290;140925;-78
2023/12/06 13:15:27;;;;;;;109.60;43.20;;;;;;;-1.98;100.00;100445.11;212174;1294;139739;-78
2023/12/06 13:21:31;;;;;;;124.70;47.20;;;;;;;-1.95;100.00;100448.68;212426;1290;249738;-78
2023/12/06 13:27:29;;;;;;;216.90;87.70;;;;;;;-1.90;100.00;100451.40;212039;1297;141340;-77
2023/12/06 13:33:31;;;;;;;125.00;47.20;;;;;;;-1.90;100.00;100454.91;212408;1290;139547;-77
2023/12/06 13:45:33;;;;;;;141.70;57.50;;;;;;;-1.93;100.00;100461.65;214191;1293;139711;-77
2023/12/06 13:51:34;;;;;;;138.70;55.00;;;;;;;-1.92;100.00;100464.38;212553;1293;139570;-77
2023/12/06 14:03:16;;;;;;;114.80;46.30;;;;;;;-1.97;100.00;100465.81;217989;1290;140143;-78
2023/12/06 14:15:19;;;;;;;133.50;48.90;;;;;;;-1.95;100.00;100481.63;212630;1292;139857;-78
2023/12/06 14:21:20;;;;;;;120.50;46.40;;;;;;;-1.93;100.00;100486.27;212560;1293;142082;-78
2023/12/06 14:27:21;;;;;;;139.70;49.50;;;;;;;-1.90;100.00;100482.03;216370;1289;144173;-78
2023/12/06 14:33:26;;;;;;;;;;;;;;;;;;;;;
2023/12/06 14:39:24;;;;;;;;;;;;;;;;;;;;;
2023/12/06 14:45:26;;;;;;;122.40;46.70;;;;;;;-1.94;100.00;100500.70;212498;1290;140207;-78
2023/12/06 14:51:27;;;;;;;120.40;52.00;;;;;;;-1.94;100.00;100511.83;212284;1289;140126;-78
2023/12/06 14:57:28;;;;;;;134.00;47.90;;;;;;;-1.98;100.00;100518.90;216818;1291;141681;-77
2023/12/06 15:03:29;;;;;;;123.20;44.60;;;;;;;-1.99;100.00;100521.88;212411;1291;139697;-78
2023/12/06 15:09:31;;;;;;;127.10;45.80;;;;;;;-2.03;100.00;100524.71;211795;1296;141437;-78
2023/12/06 15:15:35;;;;;;;123.80;46.40;;;;;;;-2.05;100.00;100531.94;212396;1293;139536;-79
2023/12/06 15:21:34;;;;;;;127.20;45.40;;;;;;;-2.05;100.00;100534.42;212347;1295;139585;-79
2023/12/06 15:27:35;;;;;;;135.20;49.70;;;;;;;-2.02;100.00;100537.98;213641;1290;140968;-78
2023/12/06 15:33:36;;;;;;;122.10;45.10;;;;;;;-2.04;100.00;100541.58;212387;1293;139904;-78
2023/12/06 15:39:27;;;;;;;142.90;53.60;;;;;;;-2.02;100.00;100537.17;217174;1289;141310;-78
2023/12/06 15:45:29;;;;;;;135.20;49.70;;;;;;;-2.06;100.00;100525.87;218127;1289;139744;-79
2023/12/06 15:51:30;;;;;;;114.30;43.90;;;;;;;-2.13;100.00;100528.39;217750;1290;139852;-79
2023/12/06 16:03:24;;;;;;;;;;;;;;;;;;;;;
2023/12/06 16:15:26;;;;;;;;;;;;;;;;;;;;;
2023/12/06 16:21:30;;;;;;;125.50;53.60;;;;;;;-2.12;100.00;100556.20;213585;1290;140945;-80
2023/12/06 16:27:31;;;;;;;128.60;44.80;;;;;;;-2.14;100.00;100554.81;217537;1290;141199;-78
2023/12/06 16:33:23;;;;;;;;;;;;;;;;;;;;;
2023/12/06 16:39:26;;;;;;;86.90;33.20;;;;;;;-2.17;100.00;100558.52;214016;1290;141240;-80
2023/12/06 16:51:28;;;;;;;122.00;43.20;;;;;;;-2.15;100.00;100578.17;217735;1290;387579;-80
2023/12/06 16:57:51;;;;;;;116.20;43.30;;;;;;;-2.12;100.00;100579.12;213534;1294;141115;-80
2023/12/06 17:21:39;;;;;;;116.80;43.80;;;;;;;-2.10;100.00;100589.92;217897;1288;140300;-79
2023/12/06 17:33:41;;;;;;;109.60;41.30;;;;;;;-2.03;100.00;100586.21;212426;1290;139491;-80
2023/12/06 17:39:41;;;;;;;;;;;;;;;;;;;;;
2023/12/06 17:45:42;;;;;;;;;;;;;;;;;;;;;
2023/12/06 17:57:45;;;;;;;147.30;50.70;;;;;;;-2.02;100.00;100596.61;213992;1290;141290;-77
2023/12/06 18:04:11;;;;;;;136.80;48.40;;;;;;;-2.02;100.00;100601.94;213051;1290;139977;-79
2023/12/06 18:09:48;;;;;;;131.70;49.40;;;;;;;-2.00;100.00;100607.15;211856;1296;141730;-78
2023/12/06 18:15:48;;;;;;;137.10;48.90;;;;;;;-2.01;100.00;100605.49;212532;1293;139423;-78
2023/12/06 18:21:50;;;;;;;145.10;53.90;;;;;;;-2.04;100.00;100608.23;215137;1290;97955;-78
2023/12/06 18:27:51;;;;;;;143.50;52.90;;;;;;;-2.00;100.00;100618.20;213295;1292;142513;-78
2023/12/06 18:33:52;;;;;;;189.10;69.30;;;;;;;-1.99;100.00;100626.93;217797;1290;96353;-78
2023/12/06 18:39:53;;;;;;;127.10;46.50;;;;;;;-1.94;100.00;100636.81;217331;1293;140672;-78
2023/12/06 18:45:56;;;;;;;309.90;94.10;;;;;;;-1.91;100.00;100638.04;215326;1290;139351;-79
2023/12/06 18:52:01;;;;;;;162.80;54.60;;;;;;;-1.89;100.00;100633.36;212670;1290;99017;-80
2023/12/06 18:58:01;;;;;;;164.00;55.00;;;;;;;-1.85;100.00;100634.79;212528;1290;140719;-80
2023/12/06 19:10:05;;;;;;;169.70;58.90;;;;;;;-1.85;100.00;100643.65;211712;1297;141767;-79
2023/12/06 19:16:07;;;;;;;162.00;58.40;;;;;;;-1.86;100.00;100644.98;211877;1296;141095;-80
2023/12/06 19:21:50;;;;;;;151.50;51.90;;;;;;;-1.85;100.00;100647.46;212463;1291;139452;-80
2023/12/06 19:27:49;;;;;;;;;;;;;;;;;;;;;
2023/12/06 19:33:55;;;;;;;190.50;60.60;;;;;;;-1.86;100.00;100647.96;213404;1292;140223;-79
2023/12/06 19:39:54;;;;;;;149.20;51.30;;;;;;;-1.86;100.00;100658.59;212988;1293;140872;-79
2023/12/06 19:46:06;;;;;;;;;;;;;;;;;;;;;
2023/12/06 19:51:46;;;;;;;140.10;49.40;;;;;;;-1.85;100.00;100674.27;212696;1290;139571;-79
2023/12/06 19:57:48;;;;;;;117.50;43.70;;;;;;;-1.86;100.00;100679.90;216103;1289;142215;-79
2023/12/06 20:09:51;;;;;;;127.90;45.30;;;;;;;-1.86;100.00;100688.63;213688;1293;140719;-80
2023/12/06 20:15:52;;;;;;;139.40;47.00;;;;;;;-1.84;100.00;100694.01;212714;1293;140546;-80
2023/12/06 20:21:53;;;;;;;131.20;48.10;;;;;;;-1.84;100.00;100700.80;212488;1290;391804;-79
2023/12/06 20:33:57;;;;;;;149.30;54.50;;;;;;;-1.81;100.00;100716.34;213961;1290;140171;-79
2023/12/06 20:39:50;;;;;;;161.90;57.70;;;;;;;-1.81;100.00;100714.31;217051;1290;141067;-80
2023/12/06 20:44:54;;;;;;;170.50;58.00;;;;;;;-1.83;100.00;100713.19;216018;1290;140221;-87
2023/12/06 20:49:55;;;;;;;162.90;55.60;;;;;;;-1.85;100.00;100718.61;213562;1291;141903;-85
2023/12/06 20:54:56;;;;;;;304.70;91.60;;;;;;;-1.89;100.00;100726.64;215013;1290;98512;-88
2023/12/06 20:59:57;;;;;;;182.60;62.80;;;;;;;-1.88;100.00;100726.20;213886;1292;140757;-86
2023/12/06 21:04:57;;;;;;;165.10;58.60;;;;;;;-1.88;100.00;100721.39;214868;1288;139889;-87
2023/12/06 21:09:58;;;;;;;169.50;53.90;;;;;;;-1.88;100.00;100717.09;214281;1290;142554;-88
2023/12/06 21:15:00;;;;;;;151.10;55.90;;;;;;;-1.91;100.00;100716.73;214571;1292;140193;-89
2023/12/06 21:20:02;;;;;;;181.80;60.30;;;;;;;-1.93;100.00;100716.38;214271;1288;141619;-89
2023/12/06 21:25:03;;;;;;;195.10;64.30;;;;;;;-1.93;100.00;100714.49;214373;1288;98859;-89
2023/12/06 21:30:04;;;;;;;167.00;57.60;;;;;;;-1.93;100.00;100710.83;214137;1287;141155;-88
2023/12/06 21:35:05;;;;;;;152.10;53.90;;;;;;;-1.91;100.00;100715.19;214916;1288;139828;-88
2023/12/06 21:40:06;;;;;;;177.10;58.10;;;;;;;-1.92;100.00;100720.58;214259;1291;141776;-88
2023/12/06 21:45:07;;;;;;;174.30;57.30;;;;;;;-1.91;100.00;100722.35;214768;1292;372392;-88
2023/12/06 21:50:08;;;;;;;177.10;52.40;;;;;;;-1.87;100.00;100727.21;214291;1288;142104;-88
2023/12/06 21:55:08;;;;;;;163.80;54.40;;;;;;;-1.88;100.00;100729.98;214820;1291;99281;-88
2023/12/06 22:00:09;;;;;;;147.70;53.50;;;;;;;-1.87;100.00;100736.98;214051;1287;140327;-87
2023/12/06 22:05:10;;;;;;;147.80;52.70;;;;;;;-1.82;100.00;100738.70;214876;1292;139633;-86
2023/12/06 22:10:11;;;;;;;132.10;47.70;;;;;;;-1.80;100.00;100744.45;214202;1287;141089;-87
2023/12/06 22:15:11;;;;;;;159.30;54.50;;;;;;;-1.82;100.00;100746.52;214909;1288;139975;-86
2023/12/06 22:20:12;;;;;;;209.80;70.50;;;;;;;-1.84;100.00;100746.88;214637;1288;142106;-88
2023/12/06 22:25:13;;;;;;;157.00;54.20;;;;;;;-1.85;100.00;100750.45;215362;1288;98455;-87
2023/12/06 22:30:14;;;;;;;170.70;56.40;;;;;;;-1.88;100.00;100760.19;214545;1288;141207;-87
2023/12/06 22:35:14;;;;;;;137.10;48.60;;;;;;;-1.88;100.00;100769.14;215047;1287;140015;-87
2023/12/06 22:40:15;;;;;;;156.50;54.00;;;;;;;-1.87;100.00;100769.51;214280;1294;141446;-88
2023/12/06 22:45:16;;;;;;;122.50;45.00;;;;;;;-1.86;100.00;100770.36;214703;1292;139859;-87
2023/12/06 22:50:16;;;;;;;151.70;53.20;;;;;;;-1.84;100.00;100776.59;214537;1291;142038;-87
2023/12/06 22:55:17;;;;;;;167.70;54.30;;;;;;;-1.82;100.00;100779.77;215480;1288;97908;-87
2023/12/06 23:00:18;;;;;;;174.10;55.90;;;;;;;-1.80;100.00;100777.26;214593;1292;141680;-88
2023/12/06 23:05:19;;;;;;;202.30;60.80;;;;;;;-1.76;100.00;100773.77;215328;1294;139910;-89
2023/12/06 23:10:19;;;;;;;126.60;45.90;;;;;;;-1.74;100.00;100775.08;214647;1292;141533;-88
2023/12/06 23:15:19;;;;;;;141.40;47.60;;;;;;;-1.70;100.00;100776.96;215119;1292;140480;-88
2023/12/06 23:20:20;;;;;;;151.10;53.60;;;;;;;-1.68;100.00;100776.79;214391;1292;142059;-88
2023/12/06 23:25:20;;;;;;;129.90;47.00;;;;;;;-1.68;100.00;100776.46;215027;1290;97868;-87
2023/12/06 23:30:21;;;;;;;156.40;55.50;;;;;;;-1.69;100.00;100783.02;214307;1288;140960;-87
2023/12/06 23:35:22;;;;;;;172.10;60.00;;;;;;;-1.70;100.00;100784.16;214812;1288;139819;-88
2023/12/06 23:40:22;;;;;;;152.90;54.00;;;;;;;-1.72;100.00;100785.63;214373;1293;141066;-86
2023/12/06 23:45:23;;;;;;;142.80;50.60;;;;;;;-1.71;100.00;100785.30;214845;1292;139943;-87
2023/12/06 23:50:23;;;;;;;137.70;49.00;;;;;;;-1.70;100.00;100791.47;214414;1293;142313;-87
2023/12/06 23:55:24;;;;;;;119.10;44.70;;;;;;;-1.68;100.00;100791.52;215045;1288;97894;-86
